sensor_id;sensor_type;location;lat;lon;timestamp;temperature;humidity
38241;DHT22;24037;49.536;8.500;2023-08-31T00:00:14;13.40;99.90
38241;DHT22;24037;49.536;8.500;2023-08-31T00:02:41;13.30;99.90
38241;DHT22;24037;49.536;8.500;2023-08-31T00:05:08;13.20;99.90
38241;DHT22;24037;49.536;8.500;2023-08-31T00:07:34;13.30;99.90
38241;DHT22;24037;49.536;8.500;2023-08-31T00:10:00;13.20;99.90
38241;DHT22;24037;49.536;8.500;2023-08-31T00:12:32;13.20;99.90
38241;DHT22;24037;49.536;8.500;2023-08-31T00:14:58;13.10;99.90
38241;DHT22;24037;49.536;8.500;2023-08-31T00:17:25;13.10;99.90
38241;DHT22;24037;49.536;8.500;2023-08-31T00:19:51;13.10;99.90
38241;DHT22;24037;49.536;8.500;2023-08-31T00:22:17;13.10;99.90
38241;DHT22;24037;49.536;8.500;2023-08-31T00:24:43;13.20;99.90
38241;DHT22;24037;49.536;8.500;2023-08-31T00:27:09;13.20;99.90
38241;DHT22;24037;49.536;8.500;2023-08-31T00:29:36;13.20;99.90
38241;DHT22;24037;49.536;8.500;2023-08-31T00:32:05;13.30;99.90
38241;DHT22;24037;49.536;8.500;2023-08-31T00:34:31;13.20;99.90
38241;DHT22;24037;49.536;8.500;2023-08-31T00:36:59;13.20;99.90
38241;DHT22;24037;49.536;8.500;2023-08-31T00:39:28;13.10;99.90
38241;DHT22;24037;49.536;8.500;2023-08-31T00:41:54;13.20;99.90
38241;DHT22;24037;49.536;8.500;2023-08-31T00:44:20;13.20;99.90
38241;DHT22;24037;49.536;8.500;2023-08-31T00:46:48;13.20;99.90
38241;DHT22;24037;49.536;8.500;2023-08-31T00:49:14;13.20;99.90
38241;DHT22;24037;49.536;8.500;2023-08-31T00:51:42;13.30;99.90
38241;DHT22;24037;49.536;8.500;2023-08-31T00:54:08;13.30;99.90
38241;DHT22;24037;49.536;8.500;2023-08-31T00:56:36;13.30;99.90
38241;DHT22;24037;49.536;8.500;2023-08-31T00:59:02;13.30;99.90
38241;DHT22;24037;49.536;8.500;2023-08-31T01:01:46;13.30;99.90
38241;DHT22;24037;49.536;8.500;2023-08-31T01:07:06;13.30;99.90
38241;DHT22;24037;49.536;8.500;2023-08-31T01:09:45;13.20;99.90
38241;DHT22;24037;49.536;8.500;2023-08-31T01:12:22;13.20;99.90
38241;DHT22;24037;49.536;8.500;2023-08-31T01:14:56;13.20;99.90
38241;DHT22;24037;49.536;8.500;2023-08-31T01:17:27;13.20;99.90
38241;DHT22;24037;49.536;8.500;2023-08-31T01:19:57;13.20;99.90
38241;DHT22;24037;49.536;8.500;2023-08-31T01:25:08;13.30;99.90
38241;DHT22;24037;49.536;8.500;2023-08-31T01:27:35;13.30;99.90
38241;DHT22;24037;49.536;8.500;2023-08-31T01:30:03;13.30;99.90
38241;DHT22;24037;49.536;8.500;2023-08-31T01:32:31;13.30;99.90
38241;DHT22;24037;49.536;8.500;2023-08-31T01:34:57;13.40;99.90
38241;DHT22;24037;49.536;8.500;2023-08-31T01:37:34;13.30;99.90
38241;DHT22;24037;49.536;8.500;2023-08-31T01:40:23;13.20;99.90
38241;DHT22;24037;49.536;8.500;2023-08-31T01:42:50;13.00;99.90
38241;DHT22;24037;49.536;8.500;2023-08-31T01:45:19;13.00;99.90
38241;DHT22;24037;49.536;8.500;2023-08-31T01:47:47;12.80;99.90
38241;DHT22;24037;49.536;8.500;2023-08-31T01:50:13;12.80;99.90
38241;DHT22;24037;49.536;8.500;2023-08-31T01:52:39;12.70;99.90
38241;DHT22;24037;49.536;8.500;2023-08-31T01:55:06;12.80;99.90
38241;DHT22;24037;49.536;8.500;2023-08-31T01:57:33;12.70;99.90
38241;DHT22;24037;49.536;8.500;2023-08-31T02:00:08;12.70;99.90
38241;DHT22;24037;49.536;8.500;2023-08-31T02:02:41;12.70;99.90
38241;DHT22;24037;49.536;8.500;2023-08-31T02:05:08;12.60;99.90
38241;DHT22;24037;49.536;8.500;2023-08-31T02:07:34;12.50;99.90
38241;DHT22;24037;49.536;8.500;2023-08-31T02:10:02;12.40;99.90
38241;DHT22;24037;49.536;8.500;2023-08-31T02:12:28;12.40;99.90
38241;DHT22;24037;49.536;8.500;2023-08-31T02:14:55;12.30;99.90
38241;DHT22;24037;49.536;8.500;2023-08-31T02:17:21;12.30;99.90
38241;DHT22;24037;49.536;8.500;2023-08-31T02:19:47;12.30;1.00
38241;DHT22;24037;49.536;8.500;2023-08-31T02:22:15;12.30;1.00
38241;DHT22;24037;49.536;8.500;2023-08-31T02:24:41;12.30;1.00
38241;DHT22;24037;49.536;8.500;2023-08-31T02:27:07;12.40;1.00
38241;DHT22;24037;49.536;8.500;2023-08-31T02:29:33;12.30;1.00
38241;DHT22;24037;49.536;8.500;2023-08-31T02:31:59;12.30;1.00
38241;DHT22;24037;49.536;8.500;2023-08-31T02:34:27;12.30;1.00
38241;DHT22;24037;49.536;8.500;2023-08-31T02:36:53;12.20;1.00
38241;DHT22;24037;49.536;8.500;2023-08-31T02:39:19;12.20;1.00
38241;DHT22;24037;49.536;8.500;2023-08-31T02:41:47;12.20;1.00
38241;DHT22;24037;49.536;8.500;2023-08-31T02:44:13;12.00;1.00
38241;DHT22;24037;49.536;8.500;2023-08-31T02:46:39;11.90;1.00
38241;DHT22;24037;49.536;8.500;2023-08-31T02:49:05;12.00;1.00
38241;DHT22;24037;49.536;8.500;2023-08-31T02:51:31;11.90;1.00
38241;DHT22;24037;49.536;8.500;2023-08-31T02:53:57;12.00;1.00
38241;DHT22;24037;49.536;8.500;2023-08-31T02:56:23;11.90;1.00
38241;DHT22;24037;49.536;8.500;2023-08-31T02:58:50;11.90;1.00
38241;DHT22;24037;49.536;8.500;2023-08-31T03:01:16;11.70;1.00
38241;DHT22;24037;49.536;8.500;2023-08-31T03:03:46;11.60;1.00
38241;DHT22;24037;49.536;8.500;2023-08-31T03:06:13;11.50;1.00
38241;DHT22;24037;49.536;8.500;2023-08-31T03:08:40;11.40;1.00
38241;DHT22;24037;49.536;8.500;2023-08-31T03:11:07;11.40;1.00
38241;DHT22;24037;49.536;8.500;2023-08-31T03:13:35;11.50;1.00
38241;DHT22;24037;49.536;8.500;2023-08-31T03:16:02;11.40;1.00
38241;DHT22;24037;49.536;8.500;2023-08-31T03:18:29;11.40;1.00
38241;DHT22;24037;49.536;8.500;2023-08-31T03:20:55;11.40;1.00
38241;DHT22;24037;49.536;8.500;2023-08-31T03:23:24;11.50;1.00
38241;DHT22;24037;49.536;8.500;2023-08-31T03:25:50;11.50;1.00
38241;DHT22;24037;49.536;8.500;2023-08-31T03:28:17;11.40;1.00
38241;DHT22;24037;49.536;8.500;2023-08-31T03:30:43;11.40;1.00
38241;DHT22;24037;49.536;8.500;2023-08-31T03:33:11;11.40;1.00
38241;DHT22;24037;49.536;8.500;2023-08-31T03:35:38;11.30;1.00
38241;DHT22;24037;49.536;8.500;2023-08-31T03:38:04;11.30;1.00
38241;DHT22;24037;49.536;8.500;2023-08-31T03:40:33;11.40;1.00
38241;DHT22;24037;49.536;8.500;2023-08-31T03:43:00;11.40;1.00
38241;DHT22;24037;49.536;8.500;2023-08-31T03:45:26;11.40;1.00
38241;DHT22;24037;49.536;8.500;2023-08-31T03:47:54;11.40;1.00
38241;DHT22;24037;49.536;8.500;2023-08-31T03:50:20;11.40;1.00
38241;DHT22;24037;49.536;8.500;2023-08-31T03:52:46;11.40;1.00
38241;DHT22;24037;49.536;8.500;2023-08-31T03:55:12;11.30;1.00
38241;DHT22;24037;49.536;8.500;2023-08-31T03:57:38;11.20;1.00
38241;DHT22;24037;49.536;8.500;2023-08-31T04:00:13;11.30;30.40
38241;DHT22;24037;49.536;8.500;2023-08-31T04:02:42;11.30;54.40
38241;DHT22;24037;49.536;8.500;2023-08-31T04:05:11;11.10;28.40
38241;DHT22;24037;49.536;8.500;2023-08-31T04:07:42;11.00;16.10
38241;DHT22;24037;49.536;8.500;2023-08-31T04:10:09;10.90;4.40
38241;DHT22;24037;49.536;8.500;2023-08-31T04:12:35;10.80;1.00
38241;DHT22;24037;49.536;8.500;2023-08-31T04:15:01;10.80;2.90
38241;DHT22;24037;49.536;8.500;2023-08-31T04:17:30;10.80;18.70
38241;DHT22;24037;49.536;8.500;2023-08-31T04:19:56;10.80;31.50
38241;DHT22;24037;49.536;8.500;2023-08-31T04:22:22;10.80;49.90
38241;DHT22;24037;49.536;8.500;2023-08-31T04:24:48;10.80;61.70
38241;DHT22;24037;49.536;8.500;2023-08-31T04:27:14;10.90;71.50
38241;DHT22;24037;49.536;8.500;2023-08-31T04:29:40;10.90;85.00
38241;DHT22;24037;49.536;8.500;2023-08-31T04:32:06;10.90;97.50
38241;DHT22;24037;49.536;8.500;2023-08-31T04:34:32;11.00;99.90
38241;DHT22;24037;49.536;8.500;2023-08-31T04:36:59;11.10;99.90
38241;DHT22;24037;49.536;8.500;2023-08-31T04:39:25;11.10;99.90
38241;DHT22;24037;49.536;8.500;2023-08-31T04:41:52;11.10;99.90
38241;DHT22;24037;49.536;8.500;2023-08-31T04:44:18;11.00;99.90
38241;DHT22;24037;49.536;8.500;2023-08-31T04:46:45;11.00;99.90
38241;DHT22;24037;49.536;8.500;2023-08-31T04:49:11;11.00;99.90
38241;DHT22;24037;49.536;8.500;2023-08-31T04:51:37;11.10;99.90
38241;DHT22;24037;49.536;8.500;2023-08-31T04:54:05;11.10;99.90
38241;DHT22;24037;49.536;8.500;2023-08-31T04:56:32;11.00;99.90
38241;DHT22;24037;49.536;8.500;2023-08-31T04:59:00;11.10;99.90
38241;DHT22;24037;49.536;8.500;2023-08-31T05:01:26;11.20;99.90
38241;DHT22;24037;49.536;8.500;2023-08-31T05:03:52;11.20;99.90
38241;DHT22;24037;49.536;8.500;2023-08-31T05:06:19;11.30;99.90
38241;DHT22;24037;49.536;8.500;2023-08-31T05:08:49;11.40;99.90
38241;DHT22;24037;49.536;8.500;2023-08-31T05:11:15;11.40;99.90
38241;DHT22;24037;49.536;8.500;2023-08-31T05:13:42;11.40;99.90
38241;DHT22;24037;49.536;8.500;2023-08-31T05:16:09;11.40;99.90
38241;DHT22;24037;49.536;8.500;2023-08-31T05:18:35;11.40;99.90
38241;DHT22;24037;49.536;8.500;2023-08-31T05:21:02;11.50;99.90
38241;DHT22;24037;49.536;8.500;2023-08-31T05:23:29;11.50;99.90
38241;DHT22;24037;49.536;8.500;2023-08-31T05:25:56;11.50;99.90
38241;DHT22;24037;49.536;8.500;2023-08-31T05:28:26;11.50;99.90
38241;DHT22;24037;49.536;8.500;2023-08-31T05:30:55;11.60;99.90
38241;DHT22;24037;49.536;8.500;2023-08-31T05:33:22;11.70;99.90
38241;DHT22;24037;49.536;8.500;2023-08-31T05:35:48;11.70;99.90
38241;DHT22;24037;49.536;8.500;2023-08-31T05:38:14;11.70;99.90
38241;DHT22;24037;49.536;8.500;2023-08-31T05:40:40;11.70;99.90
38241;DHT22;24037;49.536;8.500;2023-08-31T05:43:15;11.80;99.90
38241;DHT22;24037;49.536;8.500;2023-08-31T05:45:42;11.90;99.90
38241;DHT22;24037;49.536;8.500;2023-08-31T05:48:08;11.90;99.90
38241;DHT22;24037;49.536;8.500;2023-08-31T05:50:35;11.90;99.90
38241;DHT22;24037;49.536;8.500;2023-08-31T05:53:04;12.00;93.20
38241;DHT22;24037;49.536;8.500;2023-08-31T05:55:31;12.00;71.70
38241;DHT22;24037;49.536;8.500;2023-08-31T05:57:58;12.10;37.90
38241;DHT22;24037;49.536;8.500;2023-08-31T06:00:24;12.20;13.50
38241;DHT22;24037;49.536;8.500;2023-08-31T06:02:50;12.30;1.00
38241;DHT22;24037;49.536;8.500;2023-08-31T06:05:17;12.30;1.00
38241;DHT22;24037;49.536;8.500;2023-08-31T06:07:43;12.40;1.00
38241;DHT22;24037;49.536;8.500;2023-08-31T06:10:09;12.40;1.00
38241;DHT22;24037;49.536;8.500;2023-08-31T06:12:36;12.40;1.00
38241;DHT22;24037;49.536;8.500;2023-08-31T06:15:03;12.50;99.90
38241;DHT22;24037;49.536;8.500;2023-08-31T06:17:29;12.80;99.90
38241;DHT22;24037;49.536;8.500;2023-08-31T06:19:55;13.20;99.90
38241;DHT22;24037;49.536;8.500;2023-08-31T06:22:21;13.70;99.90
38241;DHT22;24037;49.536;8.500;2023-08-31T06:24:50;14.20;99.90
38241;DHT22;24037;49.536;8.500;2023-08-31T06:27:18;14.80;99.90
38241;DHT22;24037;49.536;8.500;2023-08-31T06:29:44;15.30;99.90
38241;DHT22;24037;49.536;8.500;2023-08-31T06:32:10;15.70;1.00
38241;DHT22;24037;49.536;8.500;2023-08-31T06:34:36;16.10;99.90
38241;DHT22;24037;49.536;8.500;2023-08-31T06:37:02;16.20;99.90
38241;DHT22;24037;49.536;8.500;2023-08-31T06:39:29;15.90;99.90
38241;DHT22;24037;49.536;8.500;2023-08-31T06:41:55;15.50;99.90
38241;DHT22;24037;49.536;8.500;2023-08-31T06:44:30;15.20;99.90
38241;DHT22;24037;49.536;8.500;2023-08-31T06:46:56;15.00;99.90
38241;DHT22;24037;49.536;8.500;2023-08-31T06:49:23;14.90;99.90
38241;DHT22;24037;49.536;8.500;2023-08-31T06:51:49;14.90;99.90
38241;DHT22;24037;49.536;8.500;2023-08-31T06:54:16;14.80;99.90
38241;DHT22;24037;49.536;8.500;2023-08-31T06:56:42;15.10;99.90
38241;DHT22;24037;49.536;8.500;2023-08-31T06:59:08;15.60;99.90
38241;DHT22;24037;49.536;8.500;2023-08-31T07:01:34;15.80;99.90
38241;DHT22;24037;49.536;8.500;2023-08-31T07:04:00;16.30;99.90
38241;DHT22;24037;49.536;8.500;2023-08-31T07:06:27;16.60;99.90
38241;DHT22;24037;49.536;8.500;2023-08-31T07:08:53;16.50;99.90
38241;DHT22;24037;49.536;8.500;2023-08-31T07:11:19;16.20;99.90
38241;DHT22;24037;49.536;8.500;2023-08-31T07:13:45;16.00;99.90
38241;DHT22;24037;49.536;8.500;2023-08-31T07:16:11;15.70;99.90
38241;DHT22;24037;49.536;8.500;2023-08-31T07:18:37;15.60;99.90
38241;DHT22;24037;49.536;8.500;2023-08-31T07:21:03;15.60;99.90
38241;DHT22;24037;49.536;8.500;2023-08-31T07:23:33;15.50;99.90
38241;DHT22;24037;49.536;8.500;2023-08-31T07:25:59;15.50;99.90
38241;DHT22;24037;49.536;8.500;2023-08-31T07:28:30;15.40;99.90
38241;DHT22;24037;49.536;8.500;2023-08-31T07:31:07;15.60;99.90
38241;DHT22;24037;49.536;8.500;2023-08-31T07:33:34;15.70;99.90
38241;DHT22;24037;49.536;8.500;2023-08-31T07:36:02;15.70;99.90
38241;DHT22;24037;49.536;8.500;2023-08-31T07:38:30;15.80;99.90
38241;DHT22;24037;49.536;8.500;2023-08-31T07:40:56;15.90;99.90
38241;DHT22;24037;49.536;8.500;2023-08-31T07:43:23;16.00;97.60
38241;DHT22;24037;49.536;8.500;2023-08-31T07:45:49;16.20;73.30
38241;DHT22;24037;49.536;8.500;2023-08-31T07:48:15;16.20;86.40
38241;DHT22;24037;49.536;8.500;2023-08-31T07:50:42;16.70;22.40
38241;DHT22;24037;49.536;8.500;2023-08-31T07:53:09;17.00;1.00
38241;DHT22;24037;49.536;8.500;2023-08-31T07:55:39;17.20;1.00
38241;DHT22;24037;49.536;8.500;2023-08-31T07:58:06;17.50;1.00
38241;DHT22;24037;49.536;8.500;2023-08-31T08:00:32;17.70;1.00
38241;DHT22;24037;49.536;8.500;2023-08-31T08:02:58;17.80;1.00
38241;DHT22;24037;49.536;8.500;2023-08-31T08:05:25;17.90;1.00
38241;DHT22;24037;49.536;8.500;2023-08-31T08:07:52;18.10;1.00
38241;DHT22;24037;49.536;8.500;2023-08-31T08:10:19;18.10;99.90
38241;DHT22;24037;49.536;8.500;2023-08-31T08:12:46;17.70;99.90
38241;DHT22;24037;49.536;8.500;2023-08-31T08:15:12;17.30;99.90
38241;DHT22;24037;49.536;8.500;2023-08-31T08:17:39;17.20;99.90
38241;DHT22;24037;49.536;8.500;2023-08-31T08:20:06;17.30;99.90
38241;DHT22;24037;49.536;8.500;2023-08-31T08:22:33;17.40;99.90
38241;DHT22;24037;49.536;8.500;2023-08-31T08:24:59;17.20;99.90
38241;DHT22;24037;49.536;8.500;2023-08-31T08:27:28;17.20;99.90
38241;DHT22;24037;49.536;8.500;2023-08-31T08:29:54;17.30;99.90
38241;DHT22;24037;49.536;8.500;2023-08-31T08:32:20;17.30;99.90
38241;DHT22;24037;49.536;8.500;2023-08-31T08:34:47;17.40;99.90
38241;DHT22;24037;49.536;8.500;2023-08-31T08:37:13;17.30;99.90
38241;DHT22;24037;49.536;8.500;2023-08-31T08:39:39;17.20;99.90
38241;DHT22;24037;49.536;8.500;2023-08-31T08:42:10;17.30;99.90
38241;DHT22;24037;49.536;8.500;2023-08-31T08:44:37;17.70;99.90
38241;DHT22;24037;49.536;8.500;2023-08-31T08:47:04;18.00;99.90
38241;DHT22;24037;49.536;8.500;2023-08-31T08:49:31;18.20;99.90
38241;DHT22;24037;49.536;8.500;2023-08-31T08:51:59;18.50;99.90
38241;DHT22;24037;49.536;8.500;2023-08-31T08:54:25;18.60;99.90
38241;DHT22;24037;49.536;8.500;2023-08-31T08:56:53;18.70;99.90
38241;DHT22;24037;49.536;8.500;2023-08-31T08:59:20;18.90;99.90
38241;DHT22;24037;49.536;8.500;2023-08-31T09:01:46;19.10;99.90
38241;DHT22;24037;49.536;8.500;2023-08-31T09:04:12;19.00;99.90
38241;DHT22;24037;49.536;8.500;2023-08-31T09:06:41;19.00;99.90
38241;DHT22;24037;49.536;8.500;2023-08-31T09:09:10;19.30;99.90
38241;DHT22;24037;49.536;8.500;2023-08-31T09:11:37;19.40;99.90
38241;DHT22;24037;49.536;8.500;2023-08-31T09:14:14;19.00;99.90
38241;DHT22;24037;49.536;8.500;2023-08-31T09:16:45;18.50;99.90
38241;DHT22;24037;49.536;8.500;2023-08-31T09:19:24;18.20;99.90
38241;DHT22;24037;49.536;8.500;2023-08-31T09:21:56;17.80;99.90
38241;DHT22;24037;49.536;8.500;2023-08-31T09:24:23;17.60;99.90
38241;DHT22;24037;49.536;8.500;2023-08-31T09:29:45;17.80;99.90
38241;DHT22;24037;49.536;8.500;2023-08-31T09:32:17;17.80;99.90
38241;DHT22;24037;49.536;8.500;2023-08-31T09:34:43;17.90;99.90
38241;DHT22;24037;49.536;8.500;2023-08-31T09:37:09;18.20;99.90
38241;DHT22;24037;49.536;8.500;2023-08-31T09:39:37;19.10;99.90
38241;DHT22;24037;49.536;8.500;2023-08-31T09:42:04;19.70;92.40
38241;DHT22;24037;49.536;8.500;2023-08-31T09:44:32;19.70;93.30
38241;DHT22;24037;49.536;8.500;2023-08-31T09:46:59;19.40;60.90
38241;DHT22;24037;49.536;8.500;2023-08-31T09:49:25;19.30;24.60
38241;DHT22;24037;49.536;8.500;2023-08-31T09:51:53;19.10;21.00
38241;DHT22;24037;49.536;8.500;2023-08-31T09:54:20;18.80;28.00
38241;DHT22;24037;49.536;8.500;2023-08-31T09:57:02;19.10;66.40
38241;DHT22;24037;49.536;8.500;2023-08-31T09:59:31;19.80;21.60
38241;DHT22;24037;49.536;8.500;2023-08-31T10:01:58;20.20;20.80
38241;DHT22;24037;49.536;8.500;2023-08-31T10:04:29;20.70;1.00
38241;DHT22;24037;49.536;8.500;2023-08-31T10:06:56;20.80;1.00
38241;DHT22;24037;49.536;8.500;2023-08-31T10:09:23;20.20;1.00
38241;DHT22;24037;49.536;8.500;2023-08-31T10:11:49;20.10;1.00
38241;DHT22;24037;49.536;8.500;2023-08-31T10:14:16;20.10;1.00
38241;DHT22;24037;49.536;8.500;2023-08-31T10:16:46;20.30;1.00
38241;DHT22;24037;49.536;8.500;2023-08-31T10:19:14;20.20;1.00
38241;DHT22;24037;49.536;8.500;2023-08-31T10:21:47;19.90;1.00
38241;DHT22;24037;49.536;8.500;2023-08-31T10:24:13;20.00;1.00
38241;DHT22;24037;49.536;8.500;2023-08-31T10:26:40;20.20;1.00
38241;DHT22;24037;49.536;8.500;2023-08-31T10:29:06;20.40;1.00
38241;DHT22;24037;49.536;8.500;2023-08-31T10:31:33;20.20;1.00
38241;DHT22;24037;49.536;8.500;2023-08-31T10:34:01;20.30;1.00
38241;DHT22;24037;49.536;8.500;2023-08-31T10:39:17;20.20;1.00
38241;DHT22;24037;49.536;8.500;2023-08-31T10:41:56;19.80;1.00
38241;DHT22;24037;49.536;8.500;2023-08-31T10:44:23;19.60;1.00
38241;DHT22;24037;49.536;8.500;2023-08-31T10:46:50;19.90;1.00
38241;DHT22;24037;49.536;8.500;2023-08-31T10:49:19;20.20;1.00
38241;DHT22;24037;49.536;8.500;2023-08-31T10:51:57;20.40;1.00
38241;DHT22;24037;49.536;8.500;2023-08-31T10:54:31;20.20;1.00
38241;DHT22;24037;49.536;8.500;2023-08-31T10:57:03;20.30;1.00
38241;DHT22;24037;49.536;8.500;2023-08-31T11:02:08;20.20;1.00
38241;DHT22;24037;49.536;8.500;2023-08-31T11:05:00;20.30;1.00
38241;DHT22;24037;49.536;8.500;2023-08-31T11:07:29;20.50;1.00
38241;DHT22;24037;49.536;8.500;2023-08-31T11:10:17;20.70;1.00
38241;DHT22;24037;49.536;8.500;2023-08-31T11:12:49;20.30;1.00
38241;DHT22;24037;49.536;8.500;2023-08-31T11:15:17;19.70;1.00
38241;DHT22;24037;49.536;8.500;2023-08-31T11:17:44;20.10;1.00
38241;DHT22;24037;49.536;8.500;2023-08-31T11:20:24;20.70;1.00
38241;DHT22;24037;49.536;8.500;2023-08-31T11:22:54;21.00;1.00
38241;DHT22;24037;49.536;8.500;2023-08-31T11:25:21;20.80;1.00
38241;DHT22;24037;49.536;8.500;2023-08-31T11:28:00;20.90;1.00
38241;DHT22;24037;49.536;8.500;2023-08-31T11:30:29;21.00;1.00
38241;DHT22;24037;49.536;8.500;2023-08-31T11:33:08;21.00;1.00
38241;DHT22;24037;49.536;8.500;2023-08-31T11:35:37;20.90;1.00
38241;DHT22;24037;49.536;8.500;2023-08-31T11:38:04;21.00;1.00
38241;DHT22;24037;49.536;8.500;2023-08-31T11:40:30;21.00;1.00
38241;DHT22;24037;49.536;8.500;2023-08-31T11:42:57;20.80;1.00
38241;DHT22;24037;49.536;8.500;2023-08-31T11:45:24;20.70;1.00
38241;DHT22;24037;49.536;8.500;2023-08-31T11:47:51;20.70;1.00
38241;DHT22;24037;49.536;8.500;2023-08-31T11:50:19;20.70;1.00
38241;DHT22;24037;49.536;8.500;2023-08-31T11:52:46;20.40;1.00
38241;DHT22;24037;49.536;8.500;2023-08-31T11:55:15;20.00;1.00
38241;DHT22;24037;49.536;8.500;2023-08-31T11:57:50;20.20;1.00
38241;DHT22;24037;49.536;8.500;2023-08-31T12:00:17;20.30;1.00
38241;DHT22;24037;49.536;8.500;2023-08-31T12:02:43;20.20;1.00
38241;DHT22;24037;49.536;8.500;2023-08-31T12:05:12;20.10;1.00
38241;DHT22;24037;49.536;8.500;2023-08-31T12:07:41;19.90;1.00
38241;DHT22;24037;49.536;8.500;2023-08-31T12:10:08;19.70;1.00
38241;DHT22;24037;49.536;8.500;2023-08-31T12:12:35;19.50;1.00
38241;DHT22;24037;49.536;8.500;2023-08-31T12:15:03;19.60;1.00
38241;DHT22;24037;49.536;8.500;2023-08-31T12:17:37;20.00;1.00
38241;DHT22;24037;49.536;8.500;2023-08-31T12:20:05;20.10;1.00
38241;DHT22;24037;49.536;8.500;2023-08-31T12:22:34;20.00;1.00
38241;DHT22;24037;49.536;8.500;2023-08-31T12:25:01;20.10;1.00
38241;DHT22;24037;49.536;8.500;2023-08-31T12:27:27;20.10;1.00
38241;DHT22;24037;49.536;8.500;2023-08-31T12:29:53;19.90;1.00
38241;DHT22;24037;49.536;8.500;2023-08-31T12:32:20;20.50;1.00
38241;DHT22;24037;49.536;8.500;2023-08-31T12:34:46;20.70;1.00
38241;DHT22;24037;49.536;8.500;2023-08-31T12:37:12;20.90;1.00
38241;DHT22;24037;49.536;8.500;2023-08-31T12:39:39;21.10;1.00
38241;DHT22;24037;49.536;8.500;2023-08-31T12:42:08;21.00;1.00
38241;DHT22;24037;49.536;8.500;2023-08-31T12:44:34;20.70;1.00
38241;DHT22;24037;49.536;8.500;2023-08-31T12:47:00;20.70;1.00
38241;DHT22;24037;49.536;8.500;2023-08-31T12:49:27;20.90;1.00
38241;DHT22;24037;49.536;8.500;2023-08-31T12:51:53;20.90;1.00
38241;DHT22;24037;49.536;8.500;2023-08-31T12:54:19;20.90;1.00
38241;DHT22;24037;49.536;8.500;2023-08-31T12:56:45;20.60;1.00
38241;DHT22;24037;49.536;8.500;2023-08-31T12:59:11;20.70;1.00
38241;DHT22;24037;49.536;8.500;2023-08-31T13:01:37;21.10;1.00
38241;DHT22;24037;49.536;8.500;2023-08-31T13:04:04;21.10;1.00
38241;DHT22;24037;49.536;8.500;2023-08-31T13:06:31;20.50;1.00
38241;DHT22;24037;49.536;8.500;2023-08-31T13:08:57;20.10;1.00
38241;DHT22;24037;49.536;8.500;2023-08-31T13:11:23;20.30;1.00
38241;DHT22;24037;49.536;8.500;2023-08-31T13:13:50;20.30;1.00
38241;DHT22;24037;49.536;8.500;2023-08-31T13:16:21;20.40;1.00
38241;DHT22;24037;49.536;8.500;2023-08-31T13:18:50;20.30;1.00
38241;DHT22;24037;49.536;8.500;2023-08-31T13:21:16;20.00;1.00
38241;DHT22;24037;49.536;8.500;2023-08-31T13:23:42;19.60;1.00
38241;DHT22;24037;49.536;8.500;2023-08-31T13:26:10;19.60;1.00
38241;DHT22;24037;49.536;8.500;2023-08-31T13:28:37;19.60;1.00
38241;DHT22;24037;49.536;8.500;2023-08-31T13:31:03;19.80;1.00
38241;DHT22;24037;49.536;8.500;2023-08-31T13:33:29;20.00;1.00
38241;DHT22;24037;49.536;8.500;2023-08-31T13:35:59;20.00;1.00
38241;DHT22;24037;49.536;8.500;2023-08-31T13:38:25;20.30;1.00
38241;DHT22;24037;49.536;8.500;2023-08-31T13:40:57;20.50;1.00
38241;DHT22;24037;49.536;8.500;2023-08-31T13:43:24;20.30;1.00
38241;DHT22;24037;49.536;8.500;2023-08-31T13:45:50;20.10;1.00
38241;DHT22;24037;49.536;8.500;2023-08-31T13:48:16;19.90;1.00
38241;DHT22;24037;49.536;8.500;2023-08-31T13:50:43;20.20;1.00
38241;DHT22;24037;49.536;8.500;2023-08-31T13:53:09;20.30;1.00
38241;DHT22;24037;49.536;8.500;2023-08-31T13:55:35;20.40;1.00
38241;DHT22;24037;49.536;8.500;2023-08-31T13:58:07;20.40;1.00
38241;DHT22;24037;49.536;8.500;2023-08-31T14:00:34;20.30;1.00
38241;DHT22;24037;49.536;8.500;2023-08-31T14:03:01;20.40;1.00
38241;DHT22;24037;49.536;8.500;2023-08-31T14:05:29;20.70;1.00
38241;DHT22;24037;49.536;8.500;2023-08-31T14:07:56;21.00;1.00
38241;DHT22;24037;49.536;8.500;2023-08-31T14:10:24;21.20;1.00
38241;DHT22;24037;49.536;8.500;2023-08-31T14:12:50;21.50;1.00
38241;DHT22;24037;49.536;8.500;2023-08-31T14:15:17;21.80;1.00
38241;DHT22;24037;49.536;8.500;2023-08-31T14:17:51;21.90;1.00
38241;DHT22;24037;49.536;8.500;2023-08-31T14:20:19;21.40;1.00
38241;DHT22;24037;49.536;8.500;2023-08-31T14:22:45;20.90;1.00
38241;DHT22;24037;49.536;8.500;2023-08-31T14:25:11;20.80;1.00
38241;DHT22;24037;49.536;8.500;2023-08-31T14:27:38;20.80;1.00
38241;DHT22;24037;49.536;8.500;2023-08-31T14:30:05;20.80;1.00
38241;DHT22;24037;49.536;8.500;2023-08-31T14:32:32;21.00;1.00
38241;DHT22;24037;49.536;8.500;2023-08-31T14:34:58;21.10;1.00
38241;DHT22;24037;49.536;8.500;2023-08-31T14:37:24;21.40;1.00
38241;DHT22;24037;49.536;8.500;2023-08-31T14:39:51;21.50;1.00
38241;DHT22;24037;49.536;8.500;2023-08-31T14:42:17;21.20;1.00
38241;DHT22;24037;49.536;8.500;2023-08-31T14:44:49;21.00;1.00
38241;DHT22;24037;49.536;8.500;2023-08-31T14:47:16;20.90;1.00
38241;DHT22;24037;49.536;8.500;2023-08-31T14:49:43;20.80;1.00
38241;DHT22;24037;49.536;8.500;2023-08-31T14:52:09;20.70;1.00
38241;DHT22;24037;49.536;8.500;2023-08-31T14:54:35;20.60;1.00
38241;DHT22;24037;49.536;8.500;2023-08-31T14:57:02;20.70;1.00
38241;DHT22;24037;49.536;8.500;2023-08-31T14:59:30;20.70;1.00
38241;DHT22;24037;49.536;8.500;2023-08-31T15:01:56;20.80;1.00
38241;DHT22;24037;49.536;8.500;2023-08-31T15:04:23;20.70;1.00
38241;DHT22;24037;49.536;8.500;2023-08-31T15:06:49;20.70;1.00
38241;DHT22;24037;49.536;8.500;2023-08-31T15:09:15;20.80;1.00
38241;DHT22;24037;49.536;8.500;2023-08-31T15:11:41;21.00;1.00
38241;DHT22;24037;49.536;8.500;2023-08-31T15:14:11;21.20;1.00
38241;DHT22;24037;49.536;8.500;2023-08-31T15:16:37;21.00;1.00
38241;DHT22;24037;49.536;8.500;2023-08-31T15:19:04;21.00;1.00
38241;DHT22;24037;49.536;8.500;2023-08-31T15:21:30;20.80;1.00
38241;DHT22;24037;49.536;8.500;2023-08-31T15:23:56;20.70;1.00
38241;DHT22;24037;49.536;8.500;2023-08-31T15:26:22;20.80;1.00
38241;DHT22;24037;49.536;8.500;2023-08-31T15:28:48;21.00;1.00
38241;DHT22;24037;49.536;8.500;2023-08-31T15:31:15;21.10;1.00
38241;DHT22;24037;49.536;8.500;2023-08-31T15:33:42;21.00;1.00
38241;DHT22;24037;49.536;8.500;2023-08-31T15:36:10;21.20;1.00
38241;DHT22;24037;49.536;8.500;2023-08-31T15:38:37;21.10;1.00
38241;DHT22;24037;49.536;8.500;2023-08-31T15:41:05;21.10;1.00
38241;DHT22;24037;49.536;8.500;2023-08-31T15:43:33;21.20;1.00
38241;DHT22;24037;49.536;8.500;2023-08-31T15:46:01;21.20;1.00
38241;DHT22;24037;49.536;8.500;2023-08-31T15:48:28;21.20;1.00
38241;DHT22;24037;49.536;8.500;2023-08-31T15:50:56;21.20;1.00
38241;DHT22;24037;49.536;8.500;2023-08-31T15:53:22;21.10;1.00